Time;durP1;ratioP1;P1;durP2;ratioP2;P2;SDS_P1;SDS_P2;PMS_P1;PMS_P2;Temp;Humidity;BMP_temperature;BMP_pressure;BME280_temperature;BME280_humidity;BME280_pressure;Samples;Min_cycle;Max_cycle;Signal;HPM_P1;HPM_P2
2022/12/02 00:02:20;;;;;;;12.73;7.10;;;6.00;99.90;;;;;;5095731;28;20425;-52
2022/12/02 00:04:49;;;;;;;11.23;7.50;;;6.10;99.90;;;;;;5095870;28;20517;-56
2022/12/02 00:07:20;;;;;;;12.27;7.45;;;6.00;99.90;;;;;;5094632;28;20799;-53
2022/12/02 00:09:48;;;;;;;10.27;7.18;;;5.90;99.90;;;;;;5093091;28;20517;-54
2022/12/02 00:12:19;;;;;;;10.52;7.50;;;5.80;99.90;;;;;;5094170;28;20420;-56
2022/12/02 00:14:47;;;;;;;11.85;7.55;;;5.60;99.90;;;;;;5094178;28;20518;-56
2022/12/02 00:17:13;;;;;;;14.00;8.77;;;5.60;99.90;;;;;;5093468;28;20506;-54
2022/12/02 00:19:40;;;;;;;13.48;7.57;;;5.70;99.90;;;;;;5092645;28;20436;-56
2022/12/02 00:22:07;;;;;;;11.93;7.57;;;5.70;99.90;;;;;;5095286;28;20748;-55
2022/12/02 00:24:34;;;;;;;13.05;8.40;;;5.80;99.90;;;;;;5095452;28;20422;-55
2022/12/02 00:27:02;;;;;;;12.73;7.95;;;5.70;99.90;;;;;;5095464;28;20428;-56
2022/12/02 00:29:29;;;;;;;12.10;7.47;;;5.80;99.90;;;;;;5095061;28;20426;-56
2022/12/02 00:31:56;;;;;;;11.50;7.80;;;6.00;99.90;;;;;;5094200;28;20517;-56
2022/12/02 00:34:22;;;;;;;11.13;7.40;;;6.00;99.90;;;;;;5093605;28;20417;-53
2022/12/02 00:36:49;;;;;;;12.75;7.85;;;6.00;99.90;;;;;;5092859;28;20913;-54
2022/12/02 00:39:16;;;;;;;12.10;7.60;;;6.00;99.90;;;;;;5093492;28;20429;-55
2022/12/02 00:41:43;;;;;;;12.40;7.80;;;6.00;99.90;;;;;;5093944;28;20421;-56
2022/12/02 00:46:55;;;;;;;11.88;6.90;;;6.20;99.90;;;;;;5094719;28;20747;-56
2022/12/02 00:49:22;;;;;;;13.13;8.25;;;6.20;99.90;;;;;;5095003;28;20436;-55
2022/12/02 00:51:49;;;;;;;13.02;7.63;;;6.20;96.90;;;;;;5095163;28;20436;-55
2022/12/02 00:54:15;;;;;;;12.75;7.47;;;6.10;99.90;;;;;;5094881;28;20508;-55
2022/12/02 00:56:42;;;;;;;12.27;7.90;;;6.10;99.90;;;;;;5093224;28;20505;-55
2022/12/02 00:59:10;;;;;;;12.77;7.43;;;6.10;99.90;;;;;;5093286;28;20425;-55
2022/12/02 01:01:39;;;;;;;9.93;7.35;;;6.10;99.90;;;;;;5093921;28;20402;-56
2022/12/02 01:04:06;;;;;;;10.68;7.18;;;6.10;99.90;;;;;;5093129;28;20454;-51
2022/12/02 01:06:33;;;;;;;13.45;7.82;;;6.00;99.90;;;;;;5092515;28;20417;-54
2022/12/02 01:09:00;;;;;;;12.63;7.88;;;6.00;99.90;;;;;;5093630;28;20875;-51
2022/12/02 01:11:26;;;;;;;12.43;8.07;;;6.00;99.90;;;;;;5093533;28;20513;-55
2022/12/02 01:13:53;;;;;;;12.07;7.93;;;5.80;99.90;;;;;;5093264;28;20426;-54
2022/12/02 01:16:21;;;;;;;12.75;7.60;;;5.90;99.90;;;;;;5093590;28;20782;-55
2022/12/02 01:18:48;;;;;;;12.00;7.20;;;5.90;99.90;;;;;;5092853;28;20512;-54
2022/12/02 01:21:15;;;;;;;13.60;7.72;;;5.90;99.90;;;;;;5092585;28;20413;-51
2022/12/02 01:23:42;;;;;;;15.18;9.18;;;5.80;99.90;;;;;;5092492;28;20709;-53
2022/12/02 01:26:08;;;;;;;10.90;6.82;;;5.90;99.90;;;;;;5093493;28;20436;-52
2022/12/02 01:28:35;;;;;;;13.88;8.98;;;5.90;99.90;;;;;;5093678;28;20409;-53
2022/12/02 01:31:02;;;;;;;14.13;8.07;;;5.80;99.90;;;;;;5096409;28;20436;-55
2022/12/02 01:33:30;;;;;;;12.80;8.23;;;5.80;99.90;;;;;;5097218;28;20860;-53
2022/12/02 01:35:57;;;;;;;12.70;7.70;;;5.90;99.90;;;;;;5097868;28;20422;-55
2022/12/02 01:38:24;;;;;;;13.30;7.55;;;6.00;99.90;;;;;;5098528;28;20426;-51
2022/12/02 01:40:51;;;;;;;13.77;7.85;;;6.00;99.90;;;;;;5098942;28;20832;-54
2022/12/02 01:43:18;;;;;;;12.70;8.40;;;6.10;99.90;;;;;;5096958;28;20460;-50
2022/12/02 01:45:45;;;;;;;12.73;8.10;;;6.20;99.90;;;;;;5097585;28;20900;-54
2022/12/02 01:48:12;;;;;;;12.15;8.38;;;6.10;99.90;;;;;;5098473;28;20908;-55
2022/12/02 01:50:40;;;;;;;14.32;8.80;;;6.00;99.90;;;;;;5098561;28;20734;-54
2022/12/02 01:53:07;;;;;;;12.63;8.50;;;6.00;99.90;;;;;;5098002;28;20808;-51
2022/12/02 01:55:34;;;;;;;13.13;7.73;;;6.00;99.90;;;;;;5098640;28;20495;-54
2022/12/02 01:58:01;;;;;;;15.00;8.55;;;6.00;99.90;;;;;;5098273;28;20422;-51
2022/12/02 02:00:29;;;;;;;14.55;8.82;;;5.80;99.90;;;;;;5098640;28;20422;-52
2022/12/02 02:02:56;;;;;;;14.55;9.10;;;5.70;99.90;;;;;;5097685;28;20414;-52
2022/12/02 02:05:26;;;;;;;12.40;7.90;;;5.60;99.90;;;;;;5098413;28;20724;-51
2022/12/02 02:07:58;;;;;;;16.80;8.55;;;5.60;99.90;;;;;;5097897;28;20427;-54
2022/12/02 02:10:26;;;;;;;14.93;7.93;;;5.60;99.90;;;;;;5098004;28;20728;-50
2022/12/02 02:12:53;;;;;;;14.07;8.35;;;5.70;99.90;;;;;;5098098;28;20497;-53
2022/12/02 02:15:21;;;;;;;14.55;8.85;;;5.80;99.90;;;;;;5097905;28;20429;-52
2022/12/02 02:17:48;;;;;;;13.60;8.43;;;5.70;99.90;;;;;;5098192;28;20469;-54
2022/12/02 02:20:18;;;;;;;14.32;8.98;;;5.70;99.90;;;;;;5097556;28;20524;-54
2022/12/02 02:22:48;;;;;;;13.85;8.63;;;5.70;99.90;;;;;;5098167;28;20670;-52
2022/12/02 02:25:18;;;;;;;15.00;8.20;;;5.80;99.90;;;;;;5098113;28;20477;-53
2022/12/02 02:27:51;;;;;;;14.05;8.18;;;5.80;99.90;;;;;;5097646;28;20414;-52
2022/12/02 02:30:18;;;;;;;14.60;9.13;;;5.80;99.90;;;;;;5097651;28;20426;-53
2022/12/02 02:32:45;;;;;;;15.07;8.73;;;5.60;99.90;;;;;;5097987;28;20434;-52
2022/12/02 02:35:12;;;;;;;13.68;8.95;;;5.40;99.90;;;;;;5096854;28;20432;-52
2022/12/02 02:37:39;;;;;;;16.70;10.00;;;5.20;99.90;;;;;;5097728;28;20410;-51
2022/12/02 02:40:07;;;;;;;13.32;8.18;;;5.30;99.90;;;;;;5096996;28;20520;-54
2022/12/02 02:42:36;;;;;;;14.88;8.60;;;5.40;99.90;;;;;;5096157;28;20478;-51
2022/12/02 02:45:03;;;;;;;12.68;7.90;;;5.60;99.90;;;;;;5097610;28;20425;-52
2022/12/02 02:47:30;;;;;;;11.85;8.05;;;5.70;99.90;;;;;;5097490;28;20457;-52
2022/12/02 02:49:57;;;;;;;10.23;6.97;;;5.90;99.90;;;;;;5097458;28;20536;-54
2022/12/02 02:52:24;;;;;;;13.68;8.15;;;6.00;99.90;;;;;;5097323;28;20452;-54
2022/12/02 02:54:51;;;;;;;13.88;8.65;;;6.00;99.90;;;;;;5097490;28;20733;-52
2022/12/02 02:57:18;;;;;;;14.07;7.88;;;6.10;99.90;;;;;;5097341;28;20912;-54
2022/12/02 02:59:47;;;;;;;12.20;7.80;;;6.00;99.90;;;;;;5097064;28;20912;-54
2022/12/02 03:02:14;;;;;;;10.55;7.72;;;6.10;99.90;;;;;;5097001;28;20437;-51
2022/12/02 03:04:43;;;;;;;14.63;9.05;;;6.10;99.90;;;;;;5096983;28;20436;-52
2022/12/02 03:07:10;;;;;;;13.27;7.72;;;6.00;99.90;;;;;;5096978;28;20414;-50
2022/12/02 03:09:38;;;;;;;13.68;8.00;;;6.10;99.90;;;;;;5097262;28;20561;-52
2022/12/02 03:12:06;;;;;;;12.30;7.88;;;6.10;99.90;;;;;;5097296;28;20544;-54
2022/12/02 03:14:33;;;;;;;12.00;7.70;;;6.10;99.90;;;;;;5096933;28;20432;-53
2022/12/02 03:17:03;;;;;;;12.70;8.07;;;6.00;99.90;;;;;;5096931;28;20418;-52
2022/12/02 03:19:32;;;;;;;13.50;8.00;;;5.80;99.90;;;;;;5096836;28;20468;-53
2022/12/02 03:22:00;;;;;;;14.07;8.00;;;5.70;99.90;;;;;;5097000;28;20418;-53
2022/12/02 03:24:29;;;;;;;12.70;7.93;;;5.60;99.90;;;;;;5095959;28;20536;-54
2022/12/02 03:26:56;;;;;;;11.50;7.75;;;5.70;99.90;;;;;;5095068;28;20414;-55
2022/12/02 03:29:23;;;;;;;12.23;8.15;;;5.90;99.90;;;;;;5095838;28;20426;-50
2022/12/02 03:31:50;;;;;;;10.88;7.50;;;5.90;99.90;;;;;;5096504;28;20430;-54
2022/12/02 03:34:18;;;;;;;13.35;7.88;;;6.00;99.90;;;;;;5095951;28;20429;-55
2022/12/02 03:36:45;;;;;;;12.90;7.70;;;6.10;99.90;;;;;;5096454;28;20920;-54
2022/12/02 03:39:12;;;;;;;13.70;7.90;;;6.10;99.90;;;;;;5096335;28;20429;-53
2022/12/02 03:41:40;;;;;;;15.20;8.83;;;6.10;99.90;;;;;;5095505;28;20414;-54
2022/12/02 03:44:07;;;;;;;16.40;8.77;;;5.80;99.90;;;;;;5096365;28;20736;-53
2022/12/02 03:46:34;;;;;;;12.45;8.15;;;5.70;99.90;;;;;;5096113;28;20418;-54
2022/12/02 03:49:02;;;;;;;15.07;8.30;;;5.80;99.90;;;;;;5095771;28;20841;-53
2022/12/02 03:51:31;;;;;;;13.80;8.40;;;5.80;99.90;;;;;;5094551;28;20519;-53
2022/12/02 03:53:59;;;;;;;11.40;7.90;;;6.00;99.90;;;;;;5094441;28;20432;-52
2022/12/02 03:56:26;;;;;;;13.65;7.90;;;6.00;99.90;;;;;;5094406;28;20444;-53
2022/12/02 03:58:54;;;;;;;12.35;7.88;;;6.00;99.90;;;;;;5094600;28;20422;-55
2022/12/02 04:01:22;;;;;;;13.37;8.80;;;6.00;99.90;;;;;;5094889;28;20440;-53
2022/12/02 04:03:49;;;;;;;12.90;8.20;;;5.90;99.90;;;;;;5095766;28;20430;-53
2022/12/02 04:06:16;;;;;;;12.00;7.70;;;5.70;99.90;;;;;;5095544;28;20418;-53
2022/12/02 04:08:44;;;;;;;12.77;7.28;;;5.60;99.90;;;;;;5095650;28;20429;-52
2022/12/02 04:11:11;;;;;;;12.80;7.50;;;5.70;99.90;;;;;;5095991;28;20414;-54
2022/12/02 04:13:38;;;;;;;13.23;8.43;;;5.80;99.90;;;;;;5095947;28;20420;-50
2022/12/02 04:16:06;;;;;;;12.77;7.50;;;5.80;99.90;;;;;;5096128;28;20451;-53
2022/12/02 04:18:32;;;;;;;10.82;7.40;;;5.80;99.90;;;;;;5096058;28;20512;-53
2022/12/02 04:20:59;;;;;;;13.90;8.70;;;5.90;99.90;;;;;;5095634;28;20720;-50
2022/12/02 04:23:26;;;;;;;11.18;7.50;;;6.00;99.90;;;;;;5096072;28;20408;-53
2022/12/02 04:25:54;;;;;;;15.45;9.35;;;6.00;99.90;;;;;;5096019;28;20436;-54
2022/12/02 04:28:21;;;;;;;15.27;8.63;;;5.90;99.90;;;;;;5095107;28;20425;-53
2022/12/02 04:30:48;;;;;;;13.55;7.82;;;5.90;99.90;;;;;;5095815;28;20440;-55
2022/12/02 04:33:14;;;;;;;10.50;7.20;;;5.80;99.90;;;;;;5095016;28;20728;-50
2022/12/02 04:35:41;;;;;;;16.40;8.80;;;5.80;99.90;;;;;;5095692;28;20553;-54
2022/12/02 04:38:08;;;;;;;15.32;8.20;;;5.80;99.90;;;;;;5095095;28;20414;-54
2022/12/02 04:40:35;;;;;;;15.23;9.40;;;5.90;99.90;;;;;;5095618;28;20428;-51
2022/12/02 04:43:03;;;;;;;10.77;7.50;;;5.80;99.90;;;;;;5095303;28;20508;-51
2022/12/02 04:45:30;;;;;;;12.82;8.40;;;5.70;99.90;;;;;;5095760;28;20447;-55
2022/12/02 04:47:57;;;;;;;15.07;8.53;;;5.80;99.90;;;;;;5095370;28;20506;-53
2022/12/02 04:50:23;;;;;;;13.60;8.20;;;5.90;99.90;;;;;;5095139;28;20426;-54
2022/12/02 04:52:50;;;;;;;15.10;9.25;;;6.00;99.90;;;;;;5095282;28;20595;-54
2022/12/02 04:55:17;;;;;;;13.30;8.32;;;6.00;99.90;;;;;;5095361;28;20421;-51
2022/12/02 04:57:44;;;;;;;15.05;8.63;;;5.80;99.90;;;;;;5095110;28;20513;-53
2022/12/02 05:00:14;;;;;;;12.98;8.18;;;5.50;99.90;;;;;;5095314;28;20789;-55
2022/12/02 05:02:40;;;;;;;16.30;9.52;;;5.40;99.90;;;;;;5095052;28;20414;-55
2022/12/02 05:05:08;;;;;;;12.77;8.85;;;5.50;99.90;;;;;;5094700;28;20417;-52
2022/12/02 05:07:35;;;;;;;13.20;8.70;;;5.70;99.90;;;;;;5095406;28;20780;-51
2022/12/02 05:10:02;;;;;;;17.00;10.03;;;5.70;99.90;;;;;;5095139;28;20418;-55
2022/12/02 05:12:29;;;;;;;13.97;8.47;;;5.60;99.90;;;;;;5094348;28;20526;-53
2022/12/02 05:14:56;;;;;;;13.57;8.65;;;5.60;99.90;;;;;;5094855;28;20528;-54
2022/12/02 05:17:24;;;;;;;12.43;8.40;;;5.70;99.90;;;;;;5094999;28;20896;-53
2022/12/02 05:19:50;;;;;;;16.67;8.93;;;5.80;99.90;;;;;;5095110;28;20528;-52
2022/12/02 05:22:17;;;;;;;16.77;9.30;;;5.60;99.90;;;;;;5095134;28;20717;-54
2022/12/02 05:24:46;;;;;;;14.20;8.27;;;5.40;99.90;;;;;;5095399;28;20501;-52
2022/12/02 05:27:13;;;;;;;15.55;9.93;;;5.40;99.90;;;;;;5095093;28;20484;-52
2022/12/02 05:29:40;;;;;;;15.17;9.73;;;5.50;99.90;;;;;;5092814;28;20430;-50
2022/12/02 05:32:07;;;;;;;12.60;9.00;;;5.40;99.90;;;;;;5093610;28;20440;-53
2022/12/02 05:34:35;;;;;;;14.60;8.23;;;5.30;99.90;;;;;;5092868;28;20512;-52
2022/12/02 05:37:02;;;;;;;14.35;9.13;;;5.30;99.90;;;;;;5093897;28;20425;-51
2022/12/02 05:39:29;;;;;;;15.02;9.10;;;5.40;99.90;;;;;;5092648;28;20432;-55
2022/12/02 05:42:01;;;;;;;14.35;8.68;;;5.50;99.90;;;;;;5093282;28;20500;-56
2022/12/02 05:44:29;;;;;;;17.58;8.90;;;5.70;99.90;;;;;;5092439;28;20425;-52
2022/12/02 05:47:01;;;;;;;14.93;8.38;;;5.90;99.90;;;;;;5093691;28;20515;-52
2022/12/02 05:49:28;;;;;;;15.30;9.55;;;6.00;99.90;;;;;;5094351;28;20436;-51
2022/12/02 05:51:58;;;;;;;13.45;8.45;;;5.90;99.90;;;;;;5094244;28;20428;-53
2022/12/02 05:54:26;;;;;;;14.20;9.03;;;5.80;99.90;;;;;;5095023;28;20540;-50
2022/12/02 05:56:54;;;;;;;11.95;8.65;;;5.70;99.90;;;;;;5094794;28;20418;-53
2022/12/02 05:59:22;;;;;;;13.75;9.10;;;5.60;99.90;;;;;;5094407;28;20436;-50
2022/12/02 06:01:51;;;;;;;15.57;9.20;;;5.50;99.90;;;;;;5094424;28;20427;-51
2022/12/02 06:04:21;;;;;;;11.00;7.47;;;5.60;99.90;;;;;;5092562;28;20465;-53
2022/12/02 06:06:48;;;;;;;14.57;9.27;;;5.70;99.90;;;;;;5091931;28;20487;-52
2022/12/02 06:09:20;;;;;;;14.80;8.77;;;5.60;99.90;;;;;;5092556;28;20489;-54
2022/12/02 06:11:48;;;;;;;15.98;8.05;;;5.70;99.90;;;;;;5090954;28;20425;-54
2022/12/02 06:14:17;;;;;;;15.98;7.95;;;5.70;99.90;;;;;;5090653;28;20436;-51
2022/12/02 06:16:48;;;;;;;15.15;8.10;;;5.60;99.90;;;;;;5090996;28;20418;-52
2022/12/02 06:19:23;;;;;;;11.47;7.73;;;5.60;99.90;;;;;;5094318;28;20498;-51
2022/12/02 06:21:50;;;;;;;12.00;7.53;;;5.70;99.90;;;;;;5093117;28;20728;-55
2022/12/02 06:24:24;;;;;;;12.40;7.20;;;5.80;99.90;;;;;;5093552;28;20461;-53
2022/12/02 06:26:52;;;;;;;13.80;7.35;;;5.80;99.90;;;;;;5095790;28;20436;-54
2022/12/02 06:29:20;;;;;;;14.30;7.50;;;5.80;99.90;;;;;;5095987;28;20528;-53
2022/12/02 06:31:47;;;;;;;12.25;7.68;;;5.80;99.90;;;;;;5097353;28;20413;-48
2022/12/02 06:34:27;;;;;;;11.63;7.10;;;5.70;99.90;;;;;;5096291;28;20807;-51
2022/12/02 06:36:57;;;;;;;14.35;7.65;;;5.60;99.90;;;;;;5095578;28;20743;-52
2022/12/02 06:39:26;;;;;;;11.43;6.97;;;5.40;99.90;;;;;;5095350;28;20837;-51
2022/12/02 06:41:54;;;;;;;12.68;8.13;;;5.20;99.90;;;;;;5094185;28;20848;-54
2022/12/02 06:47:44;;;;;;;10.77;6.90;;;5.20;99.90;;;;;;5095322;28;20419;-53
2022/12/02 06:50:28;;;;;;;12.97;6.80;;;5.40;99.90;;;;;;5095181;28;20532;-56
2022/12/02 06:53:02;;;;;;;12.43;6.50;;;5.30;99.90;;;;;;5094654;28;20464;-55
2022/12/02 06:55:33;;;;;;;11.43;6.50;;;5.30;99.90;;;;;;5094703;28;20430;-52
2022/12/02 06:58:15;;;;;;;11.75;7.05;;;5.40;99.90;;;;;;5095727;28;20440;-55
2022/12/02 07:00:43;;;;;;;10.77;6.28;;;5.50;99.90;;;;;;5094587;28;20432;-54
2022/12/02 07:03:25;;;;;;;13.73;7.70;;;5.40;99.90;;;;;;5092215;28;20412;-49
2022/12/02 07:05:53;;;;;;;12.63;7.60;;;5.20;99.90;;;;;;5094694;28;20422;-54
2022/12/02 07:08:20;;;;;;;12.25;8.07;;;5.20;99.90;;;;;;5095035;28;20418;-49
2022/12/02 07:10:49;;;;;;;13.52;7.40;;;5.20;99.90;;;;;;5095229;28;20497;-53
2022/12/02 07:13:18;;;;;;;13.30;7.68;;;5.20;99.90;;;;;;5095242;28;20539;-54
2022/12/02 07:15:45;;;;;;;12.73;7.43;;;5.30;99.90;;;;;;5111873;28;20605;-52
2022/12/02 07:18:15;;;;;;;13.10;8.30;;;5.20;99.90;;;;;;5109163;28;20426;-55
2022/12/02 07:20:44;;;;;;;15.00;8.57;;;5.00;99.90;;;;;;5102169;28;20428;-52
2022/12/02 07:23:16;;;;;;;16.15;8.95;;;5.00;99.90;;;;;;5115236;28;20514;-53
2022/12/02 07:25:45;;;;;;;16.30;9.43;;;5.00;99.90;;;;;;5115457;28;20420;-52
2022/12/02 07:28:23;;;;;;;16.30;9.82;;;5.00;99.90;;;;;;5112484;28;20428;-53
2022/12/02 07:30:55;;;;;;;18.77;10.25;;;4.90;99.90;;;;;;5107618;28;20416;-52
2022/12/02 07:33:22;;;;;;;16.57;9.33;;;5.00;99.90;;;;;;5113706;28;20432;-54
2022/12/02 07:35:49;;;;;;;16.60;9.83;;;5.00;99.90;;;;;;5098710;28;20523;-49
2022/12/02 07:38:16;;;;;;;18.50;10.53;;;5.10;99.90;;;;;;5095138;28;20516;-53
2022/12/02 07:40:45;;;;;;;19.25;9.90;;;5.10;99.90;;;;;;5093476;28;20796;-53
2022/12/02 07:43:12;;;;;;;18.80;10.50;;;5.10;99.90;;;;;;5095518;28;20425;-53
2022/12/02 07:45:40;;;;;;;18.03;11.03;;;5.00;99.90;;;;;;5100821;28;20465;-55
2022/12/02 07:48:07;;;;;;;17.52;10.50;;;5.00;99.90;;;;;;5100123;28;20420;-53
2022/12/02 07:50:34;;;;;;;21.35;11.25;;;5.00;99.90;;;;;;5110185;28;20435;-56
2022/12/02 07:53:01;;;;;;;20.45;11.82;;;5.00;99.90;;;;;;5100438;28;20436;-53
2022/12/02 07:55:28;;;;;;;18.00;10.85;;;5.00;99.90;;;;;;5109976;28;20419;-54
2022/12/02 07:57:55;;;;;;;16.50;10.43;;;5.00;99.90;;;;;;5101585;28;20484;-55
2022/12/02 08:00:23;;;;;;;19.38;10.57;;;5.10;99.90;;;;;;5098559;28;20728;-56
2022/12/02 08:02:51;;;;;;;18.88;9.70;;;5.10;99.90;;;;;;5108994;28;20520;-52
2022/12/02 08:05:18;;;;;;;18.85;11.55;;;5.10;99.90;;;;;;5107832;28;20428;-55
2022/12/02 08:07:45;;;;;;;18.25;11.32;;;5.10;99.90;;;;;;5105380;28;20436;-55
2022/12/02 08:10:13;;;;;;;16.50;10.40;;;5.10;99.90;;;;;;5111058;28;20517;-55
2022/12/02 08:12:41;;;;;;;19.52;9.90;;;5.10;99.90;;;;;;5113170;28;20439;-54
2022/12/02 08:15:09;;;;;;;20.42;11.40;;;4.90;99.90;;;;;;5106932;28;20568;-54
2022/12/02 08:17:37;;;;;;;18.10;9.80;;;4.90;99.90;;;;;;5111610;28;20507;-55
2022/12/02 08:20:07;;;;;;;19.57;10.43;;;4.90;99.90;;;;;;5112787;28;20518;-55
2022/12/02 08:22:34;;;;;;;22.10;12.55;;;5.00;99.90;;;;;;5104855;28;20793;-56
2022/12/02 08:25:01;;;;;;;19.45;9.90;;;5.10;99.90;;;;;;5110417;28;20424;-54
2022/12/02 08:27:28;;;;;;;17.92;10.00;;;5.10;99.90;;;;;;5101716;28;20512;-52
2022/12/02 08:29:54;;;;;;;17.92;10.13;;;5.10;99.90;;;;;;5093737;28;20432;-51
2022/12/02 08:32:21;;;;;;;18.92;11.20;;;5.00;99.90;;;;;;5095932;28;20804;-54
2022/12/02 08:34:48;;;;;;;16.65;9.15;;;5.00;99.90;;;;;;5102122;28;20437;-54
2022/12/02 08:37:16;;;;;;;18.77;9.38;;;5.00;99.90;;;;;;5107619;28;20420;-53
2022/12/02 08:39:43;;;;;;;18.23;9.70;;;5.00;99.90;;;;;;5110641;28;20436;-52
2022/12/02 08:42:10;;;;;;;17.25;9.55;;;5.20;99.90;;;;;;5111418;28;20455;-49
2022/12/02 08:44:37;;;;;;;17.80;9.85;;;5.30;99.90;;;;;;5112165;28;20426;-53
2022/12/02 08:47:04;;;;;;;17.70;10.00;;;5.60;99.90;;;;;;5104219;28;20428;-51
2022/12/02 08:49:30;;;;;;;14.90;8.90;;;5.60;99.90;;;;;;5112181;28;20426;-52
2022/12/02 08:51:57;;;;;;;14.50;7.95;;;5.40;99.90;;;;;;5101562;28;20476;-53
2022/12/02 08:54:25;;;;;;;16.92;8.32;;;5.40;99.90;;;;;;5102007;28;20438;-54
2022/12/02 08:56:53;;;;;;;13.80;7.80;;;5.40;99.90;;;;;;5091284;28;20837;-55
2022/12/02 08:59:20;;;;;;;13.60;7.35;;;5.60;99.90;;;;;;5098306;28;20433;-54
2022/12/02 09:01:46;;;;;;;15.35;8.30;;;5.60;99.90;;;;;;5102010;28;20527;-53
2022/12/02 09:04:13;;;;;;;16.27;8.10;;;5.70;99.90;;;;;;5109251;28;20743;-54
2022/12/02 09:06:41;;;;;;;13.77;8.27;;;5.60;99.90;;;;;;5097444;28;20452;-54
2022/12/02 09:09:08;;;;;;;13.52;7.20;;;5.50;99.90;;;;;;5109990;28;20432;-54
2022/12/02 09:11:36;;;;;;;15.60;8.35;;;5.40;99.90;;;;;;5111915;28;20503;-52
2022/12/02 09:14:03;;;;;;;12.93;7.75;;;5.30;99.90;;;;;;5108691;28;20733;-55
2022/12/02 09:16:30;;;;;;;12.43;6.78;;;5.20;99.90;;;;;;5105423;28;20442;-53
2022/12/02 09:18:57;;;;;;;13.70;7.13;;;5.20;99.90;;;;;;5101693;28;20456;-54
2022/12/02 09:21:24;;;;;;;14.77;6.70;;;5.30;99.90;;;;;;5092310;28;20421;-58
2022/12/02 09:23:51;;;;;;;14.02;6.28;;;5.30;99.90;;;;;;5092557;28;20430;-54
2022/12/02 09:26:17;;;;;;;13.90;6.63;;;5.30;99.90;;;;;;5091977;28;20509;-54
2022/12/02 09:28:46;;;;;;;12.10;5.40;;;5.30;99.90;;;;;;5093094;28;20417;-52
2022/12/02 09:31:13;;;;;;;13.25;6.90;;;5.30;99.90;;;;;;5092053;28;20744;-55
2022/12/02 09:33:43;;;;;;;12.07;5.82;;;5.30;99.90;;;;;;5092370;28;20429;-53
2022/12/02 09:36:09;;;;;;;13.82;6.90;;;5.30;99.90;;;;;;5092280;28;20716;-53
2022/12/02 09:38:36;;;;;;;13.63;7.50;;;5.30;99.90;;;;;;5092878;28;20417;-53
2022/12/02 09:41:04;;;;;;;12.90;7.00;;;5.30;99.90;;;;;;5092730;28;20433;-52
2022/12/02 09:43:34;;;;;;;12.90;6.80;;;5.30;99.90;;;;;;5092596;28;20596;-53
2022/12/02 09:46:04;;;;;;;9.45;5.85;;;5.40;99.90;;;;;;5108235;28;20679;-52
2022/12/02 09:48:32;;;;;;;8.73;5.15;;;5.30;99.90;;;;;;5112857;28;20594;-50
2022/12/02 09:51:00;;;;;;;11.25;5.43;;;5.20;99.90;;;;;;5113793;28;20438;-54
2022/12/02 09:53:31;;;;;;;10.83;5.33;;;5.20;99.90;;;;;;5116355;28;20432;-52
2022/12/02 09:55:58;;;;;;;8.75;5.07;;;5.30;99.90;;;;;;5116121;28;20418;-51
2022/12/02 09:58:27;;;;;;;10.63;4.90;;;5.20;99.90;;;;;;5115253;28;20420;-51
2022/12/02 10:00:54;;;;;;;9.40;4.95;;;5.20;99.90;;;;;;5116333;28;20853;-53
2022/12/02 10:03:26;;;;;;;9.85;4.57;;;5.20;99.90;;;;;;5116837;28;20785;-54
2022/12/02 10:05:53;;;;;;;8.57;4.43;;;5.20;99.90;;;;;;5115701;28;20415;-54
2022/12/02 10:08:23;;;;;;;8.80;4.57;;;5.10;99.90;;;;;;5114479;28;20427;-50
2022/12/02 10:10:52;;;;;;;7.22;3.20;;;5.20;99.90;;;;;;5114506;28;20893;-53
2022/12/02 10:13:23;;;;;;;7.05;3.15;;;5.20;99.90;;;;;;5114339;28;20427;-50
2022/12/02 10:15:50;;;;;;;5.73;2.73;;;5.20;99.90;;;;;;5116350;28;20297;-50
2022/12/02 10:18:19;;;;;;;4.27;2.13;;;5.20;99.90;;;;;;5116404;28;20515;-53
2022/12/02 10:20:49;;;;;;;6.93;1.93;;;5.20;99.90;;;;;;5117390;28;20883;-52
2022/12/02 10:23:17;;;;;;;5.90;2.53;;;5.20;99.90;;;;;;5115570;28;20404;-53
2022/12/02 10:25:46;;;;;;;6.93;3.63;;;5.20;99.90;;;;;;5115900;28;20719;-51
2022/12/02 10:28:22;;;;;;;8.80;3.28;;;5.20;99.90;;;;;;5115565;28;20788;-50
2022/12/02 10:30:50;;;;;;;6.63;2.88;;;5.30;99.90;;;;;;5116963;28;20419;-50
2022/12/02 10:33:17;;;;;;;7.10;2.70;;;5.30;99.90;;;;;;5116466;28;20429;-51
2022/12/02 10:35:48;;;;;;;5.50;1.87;;;5.30;99.90;;;;;;5117505;28;20890;-51
2022/12/02 10:38:38;;;;;;;4.27;1.77;;;5.30;99.90;;;;;;5115683;28;20747;-51
2022/12/02 10:41:21;;;;;;;2.60;1.10;;;5.30;99.90;;;;;;5116561;28;20440;-59
2022/12/02 10:44:06;;;;;;;4.90;1.40;;;5.20;99.90;;;;;;5117351;28;20821;-59
2022/12/02 10:46:33;;;;;;;6.80;1.60;;;5.20;99.90;;;;;;5117465;28;20484;-60
2022/12/02 10:49:16;;;;;;;3.90;1.40;;;5.20;99.90;;;;;;5116569;28;20884;-61
2022/12/02 10:51:45;;;;;;;3.13;1.20;;;5.20;99.90;;;;;;5118076;28;20868;-60
2022/12/02 10:54:27;;;;;;;4.30;1.83;;;5.10;99.90;;;;;;5116814;28;20531;-59
2022/12/02 10:56:54;;;;;;;6.07;1.50;;;5.10;99.90;;;;;;5114037;28;20434;-60
2022/12/02 10:59:22;;;;;;;3.10;1.00;;;5.00;99.90;;;;;;5117311;28;20752;-60
2022/12/02 11:01:50;;;;;;;3.57;1.40;;;5.00;99.90;;;;;;5115917;28;20778;-59
2022/12/02 11:04:17;;;;;;;4.70;2.43;;;5.00;99.90;;;;;;5114507;28;20497;-58
2022/12/02 11:06:46;;;;;;;3.50;1.50;;;4.90;99.90;;;;;;5117309;28;20426;-59
2022/12/02 11:09:15;;;;;;;;;;;5.00;99.90;;;;;;5115500;28;20744;-58
2022/12/02 11:11:41;;;;;;;;;;;5.00;99.90;;;;;;5116234;28;19923;-59
2022/12/02 11:14:11;;;;;;;;;;;5.00;99.90;;;;;;5100485;28;19971;-60
2022/12/02 11:16:55;;;;;;;;;;;5.00;99.90;;;;;;5097384;28;20292;-60
2022/12/02 11:19:39;;;;;;;;;;;5.00;99.90;;;;;;5099770;28;19920;-60
2022/12/02 11:22:37;;;;;;;;;;;5.00;99.90;;;;;;5106260;28;19955;-60
2022/12/02 11:25:05;;;;;;;;;;;5.00;99.90;;;;;;5112317;28;20302;-60
2022/12/02 11:27:32;;;;;;;;;;;5.00;99.90;;;;;;5115620;28;19963;-60
2022/12/02 11:30:16;;;;;;;;;;;5.00;99.90;;;;;;5113334;28;19919;-60
2022/12/02 11:32:49;;;;;;;;;;;5.00;99.90;;;;;;5099008;28;20197;-60
2022/12/02 11:35:17;;;;;;;;;;;5.00;99.90;;;;;;5117024;28;19919;-60
2022/12/02 11:37:44;;;;;;;;;;;4.90;99.90;;;;;;5115121;28;19920;-59
2022/12/02 11:40:29;;;;;;;;;;;4.90;99.90;;;;;;5103141;28;19920;-61
2022/12/02 11:43:11;;;;;;;;;;;4.90;99.90;;;;;;5095231;28;19920;-60
2022/12/02 11:45:55;;;;;;;;;;;4.90;99.90;;;;;;5093669;28;19920;-60
2022/12/02 11:48:22;;;;;;;;;;;4.90;99.90;;;;;;5097145;28;19927;-61
2022/12/02 11:50:49;;;;;;;;;;;4.90;99.90;;;;;;5094928;28;19926;-60
2022/12/02 11:53:16;;;;;;;;;;;4.90;99.90;;;;;;5092604;28;19923;-59
2022/12/02 11:55:44;;;;;;;;;;;4.90;99.90;;;;;;5099283;28;19951;-59
2022/12/02 11:58:16;;;;;;;;;;;5.00;99.90;;;;;;5108257;28;20103;-59
2022/12/02 12:00:59;;;;;;;;;;;5.00;99.90;;;;;;5094963;28;19920;-59
2022/12/02 12:03:27;;;;;;;;;;;5.00;99.90;;;;;;5099182;28;19919;-59
2022/12/02 12:06:07;;;;;;;;;;;5.00;99.90;;;;;;5115263;28;20022;-59
2022/12/02 12:08:34;;;;;;;;;;;5.00;99.90;;;;;;5108365;28;19930;-59
2022/12/02 12:11:17;;;;;;;;;;;4.90;99.90;;;;;;5105557;28;19949;-59
2022/12/02 12:13:58;;;;;;;;;;;4.90;99.90;;;;;;5115572;28;19926;-60
2022/12/02 12:16:25;;;;;;;;;;;4.90;99.90;;;;;;5104919;28;19926;-59
2022/12/02 12:18:53;;;;;;;;;;;4.90;99.90;;;;;;5114217;28;20164;-61
2022/12/02 12:21:44;;;;;;;;;;;4.90;99.90;;;;;;5101580;28;19923;-60
2022/12/02 12:24:27;;;;;;;;;;;4.80;99.90;;;;;;5095335;28;19919;-60
2022/12/02 12:26:55;;;;;;;;;;;4.80;99.90;;;;;;5095231;28;19920;-60
2022/12/02 12:29:24;;;;;;;1.60;0.70;;;4.80;99.90;;;;;;5101006;28;20197;-47
2022/12/02 12:31:51;;;;;;;1.83;0.77;;;4.80;99.90;;;;;;5095676;28;20446;-52
2022/12/02 12:34:19;;;;;;;2.00;0.90;;;4.90;99.90;;;;;;5104195;28;20452;-49
2022/12/02 12:36:46;;;;;;;6.23;2.77;;;4.80;99.90;;;;;;5094026;28;20882;-47
2022/12/02 12:39:13;;;;;;;;;;;4.70;99.90;;;;;;5104165;27;20329;-55
2022/12/02 12:41:40;;;;;;;;;;;4.70;99.90;;;;;;5103127;28;19926;-55
2022/12/02 12:44:07;;;;;;;;;;;4.90;99.90;;;;;;5107937;28;19925;-57
2022/12/02 12:46:33;;;;;;;;;;;4.90;99.90;;;;;;5109259;28;19923;-53
2022/12/02 12:49:00;;;;;;;;;;;4.90;99.90;;;;;;5109444;28;19920;-57
2022/12/02 12:51:28;;;;;;;;;;;4.90;99.90;;;;;;5104550;28;19920;-58
2022/12/02 12:53:55;;;;;;;;;;;4.90;99.90;;;;;;5099476;28;19926;-57
2022/12/02 12:56:22;;;;;;;;;;;5.00;99.90;;;;;;5102946;28;19999;-56
2022/12/02 12:58:49;;;;;;;;;;;5.00;99.90;;;;;;5097179;28;20007;-59
2022/12/02 13:01:15;;;;;;;;;;;5.00;99.90;;;;;;5105290;28;19930;-57
2022/12/02 13:03:42;;;;;;;;;;;5.00;99.90;;;;;;5100963;28;19930;-60
2022/12/02 13:06:09;;;;;;;;;;;5.10;99.90;;;;;;5107764;28;19920;-57
2022/12/02 13:08:37;;;;;;;;;;;5.20;99.90;;;;;;5094913;28;19967;-61
2022/12/02 13:11:04;;;;;;;;;;;5.30;99.90;;;;;;5098027;28;19923;-61
2022/12/02 13:13:34;;;;;;;;;;;5.30;99.90;;;;;;5099900;28;19924;-59
2022/12/02 13:16:01;;;;;;;;;;;5.50;99.90;;;;;;5111407;28;19923;-59